sensor_id;sensor_type;location;lat;lon;timestamp;pressure;altitude;pressure_sealevel;temperature;humidity
49949;BME280;35840;45.982;8.890;2023-03-24T00:00:19;98358.28;;;12.70;71.53
49949;BME280;35840;45.982;8.890;2023-03-24T00:02:48;98360.22;;;12.67;71.67
49949;BME280;35840;45.982;8.890;2023-03-24T00:05:17;98365.16;;;12.83;71.11
49949;BME280;35840;45.982;8.890;2023-03-24T00:07:45;98367.63;;;12.97;70.20
49949;BME280;35840;45.982;8.890;2023-03-24T00:10:14;98372.34;;;13.03;69.87
49949;BME280;35840;45.982;8.890;2023-03-24T00:12:45;98373.53;;;13.11;69.09
49949;BME280;35840;45.982;8.890;2023-03-24T00:15:18;98365.28;;;13.18;68.95
49949;BME280;35840;45.982;8.890;2023-03-24T00:17:46;98363.97;;;13.24;68.63
49949;BME280;35840;45.982;8.890;2023-03-24T00:20:18;98369.47;;;13.19;68.96
49949;BME280;35840;45.982;8.890;2023-03-24T00:22:48;98360.19;;;13.17;69.50
49949;BME280;35840;45.982;8.890;2023-03-24T00:25:19;98365.97;;;13.20;68.94
49949;BME280;35840;45.982;8.890;2023-03-24T00:27:46;98365.75;;;13.23;68.77
49949;BME280;35840;45.982;8.890;2023-03-24T00:30:17;98366.69;;;13.22;69.00
49949;BME280;35840;45.982;8.890;2023-03-24T00:32:45;98368.66;;;13.19;69.05
49949;BME280;35840;45.982;8.890;2023-03-24T00:35:14;98369.47;;;13.19;69.10
49949;BME280;35840;45.982;8.890;2023-03-24T00:37:42;98364.72;;;13.26;68.82
49949;BME280;35840;45.982;8.890;2023-03-24T00:40:15;98363.06;;;13.25;68.50
49949;BME280;35840;45.982;8.890;2023-03-24T00:42:44;98362.00;;;13.03;69.43
49949;BME280;35840;45.982;8.890;2023-03-24T00:45:14;98359.75;;;12.99;70.48
49949;BME280;35840;45.982;8.890;2023-03-24T00:47:43;98355.13;;;12.91;70.20
49949;BME280;35840;45.982;8.890;2023-03-24T00:50:13;98354.09;;;12.94;70.11
49949;BME280;35840;45.982;8.890;2023-03-24T00:52:41;98345.81;;;13.01;69.38
49949;BME280;35840;45.982;8.890;2023-03-24T00:55:11;98350.25;;;12.99;69.09
49949;BME280;35840;45.982;8.890;2023-03-24T00:57:43;98343.31;;;13.00;68.99
49949;BME280;35840;45.982;8.890;2023-03-24T01:00:19;98350.38;;;12.98;69.15
49949;BME280;35840;45.982;8.890;2023-03-24T01:02:48;98338.50;;;12.95;68.78
49949;BME280;35840;45.982;8.890;2023-03-24T01:05:25;98335.00;;;12.96;69.56
49949;BME280;35840;45.982;8.890;2023-03-24T01:07:58;98337.34;;;12.99;70.01
49949;BME280;35840;45.982;8.890;2023-03-24T01:10:32;98340.66;;;13.01;69.14
49949;BME280;35840;45.982;8.890;2023-03-24T01:13:00;98336.31;;;13.02;68.75
49949;BME280;35840;45.982;8.890;2023-03-24T01:15:31;98336.44;;;13.00;68.55
49949;BME280;35840;45.982;8.890;2023-03-24T01:17:59;98325.47;;;12.97;69.52
49949;BME280;35840;45.982;8.890;2023-03-24T01:20:32;98330.66;;;12.97;69.30
49949;BME280;35840;45.982;8.890;2023-03-24T01:23:02;98329.81;;;12.96;69.04
49949;BME280;35840;45.982;8.890;2023-03-24T01:25:32;98329.59;;;12.99;68.98
49949;BME280;35840;45.982;8.890;2023-03-24T01:27:58;98307.88;;;12.90;68.37
49949;BME280;35840;45.982;8.890;2023-03-24T01:30:27;98319.84;;;12.91;68.44
49949;BME280;35840;45.982;8.890;2023-03-24T01:32:54;98313.13;;;12.89;67.91
49949;BME280;35840;45.982;8.890;2023-03-24T01:35:23;98304.88;;;12.84;68.47
49949;BME280;35840;45.982;8.890;2023-03-24T01:37:54;98306.44;;;12.86;68.30
49949;BME280;35840;45.982;8.890;2023-03-24T01:40:30;98299.50;;;12.87;67.66
49949;BME280;35840;45.982;8.890;2023-03-24T01:42:58;98283.78;;;12.79;69.04
49949;BME280;35840;45.982;8.890;2023-03-24T01:48:08;98296.44;;;12.82;68.68
49949;BME280;35840;45.982;8.890;2023-03-24T01:50:37;98294.16;;;12.77;68.46
49949;BME280;35840;45.982;8.890;2023-03-24T01:53:04;98293.34;;;12.77;67.97
49949;BME280;35840;45.982;8.890;2023-03-24T01:55:31;98285.03;;;12.73;68.13
49949;BME280;35840;45.982;8.890;2023-03-24T01:58:01;98266.91;;;12.62;68.52
49949;BME280;35840;45.982;8.890;2023-03-24T02:00:39;98286.28;;;12.67;68.13
49949;BME280;35840;45.982;8.890;2023-03-24T02:03:44;98279.94;;;12.71;67.37
49949;BME280;35840;45.982;8.890;2023-03-24T02:06:13;98289.00;;;12.77;67.66
49949;BME280;35840;45.982;8.890;2023-03-24T02:08:52;98290.44;;;12.81;67.40
49949;BME280;35840;45.982;8.890;2023-03-24T02:11:23;98274.59;;;12.74;68.17
49949;BME280;35840;45.982;8.890;2023-03-24T02:13:55;98274.47;;;12.76;68.83
49949;BME280;35840;45.982;8.890;2023-03-24T02:16:33;98282.09;;;12.78;68.50
49949;BME280;35840;45.982;8.890;2023-03-24T02:19:29;98284.47;;;12.81;68.46
49949;BME280;35840;45.982;8.890;2023-03-24T02:34:02;98268.81;;;12.71;69.25
49949;BME280;35840;45.982;8.890;2023-03-24T02:39:32;98249.84;;;12.72;69.08
49949;BME280;35840;45.982;8.890;2023-03-24T02:50:48;98255.53;;;12.64;69.40
49949;BME280;35840;45.982;8.890;2023-03-24T02:53:07;98247.41;;;12.57;69.40
49949;BME280;35840;45.982;8.890;2023-03-24T02:55:59;98253.38;;;12.58;69.26
49949;BME280;35840;45.982;8.890;2023-03-24T02:58:39;98259.34;;;12.58;70.27
49949;BME280;35840;45.982;8.890;2023-03-24T03:01:13;98260.69;;;12.64;68.97
49949;BME280;35840;45.982;8.890;2023-03-24T03:04:17;98252.53;;;12.70;68.71
49949;BME280;35840;45.982;8.890;2023-03-24T03:06:49;98253.78;;;12.65;68.40
49949;BME280;35840;45.982;8.890;2023-03-24T03:09:20;98247.19;;;12.61;69.29
49949;BME280;35840;45.982;8.890;2023-03-24T03:11:50;98238.34;;;12.52;69.54
49949;BME280;35840;45.982;8.890;2023-03-24T03:16:55;98230.41;;;12.55;70.11
49949;BME280;35840;45.982;8.890;2023-03-24T03:19:32;98233.56;;;12.58;69.94
49949;BME280;35840;45.982;8.890;2023-03-24T03:22:03;98230.47;;;12.66;69.72
49949;BME280;35840;45.982;8.890;2023-03-24T03:24:37;98227.03;;;12.66;69.43
49949;BME280;35840;45.982;8.890;2023-03-24T03:27:26;98227.16;;;12.64;69.41
49949;BME280;35840;45.982;8.890;2023-03-24T03:30:02;98215.84;;;12.54;70.36
49949;BME280;35840;45.982;8.890;2023-03-24T03:32:32;98220.19;;;12.53;71.51
49949;BME280;35840;45.982;8.890;2023-03-24T03:35:08;98217.63;;;12.53;70.84
49949;BME280;35840;45.982;8.890;2023-03-24T03:37:57;98211.19;;;12.59;71.41
49949;BME280;35840;45.982;8.890;2023-03-24T03:40:39;98212.94;;;12.58;70.75
49949;BME280;35840;45.982;8.890;2023-03-24T03:43:14;98207.78;;;12.58;70.64
49949;BME280;35840;45.982;8.890;2023-03-24T03:45:41;98212.13;;;12.58;70.85
49949;BME280;35840;45.982;8.890;2023-03-24T03:48:09;98217.38;;;12.56;71.23
49949;BME280;35840;45.982;8.890;2023-03-24T03:50:36;98208.09;;;12.54;72.04
49949;BME280;35840;45.982;8.890;2023-03-24T03:53:07;98211.63;;;12.53;72.63
49949;BME280;35840;45.982;8.890;2023-03-24T03:55:35;98215.25;;;12.50;72.46
49949;BME280;35840;45.982;8.890;2023-03-24T03:58:03;98210.28;;;12.47;73.00
49949;BME280;35840;45.982;8.890;2023-03-24T04:00:53;98195.97;;;12.43;72.68
49949;BME280;35840;45.982;8.890;2023-03-24T04:07:35;98219.53;;;12.63;72.83
49949;BME280;35840;45.982;8.890;2023-03-24T04:16:44;98217.84;;;12.50;72.99
49949;BME280;35840;45.982;8.890;2023-03-24T04:28:22;98218.09;;;12.58;72.49
49949;BME280;35840;45.982;8.890;2023-03-24T04:31:03;98218.53;;;12.52;73.21
49949;BME280;35840;45.982;8.890;2023-03-24T04:34:02;98226.91;;;12.56;73.59
49949;BME280;35840;45.982;8.890;2023-03-24T04:39:23;98226.50;;;12.49;73.78
49949;BME280;35840;45.982;8.890;2023-03-24T04:42:00;98225.47;;;12.52;74.69
49949;BME280;35840;45.982;8.890;2023-03-24T04:44:28;98221.44;;;12.48;74.07
49949;BME280;35840;45.982;8.890;2023-03-24T04:47:31;98225.56;;;12.50;74.59
49949;BME280;35840;45.982;8.890;2023-03-24T04:50:27;98223.06;;;12.49;74.63
49949;BME280;35840;45.982;8.890;2023-03-24T04:52:58;98227.19;;;12.51;74.44
49949;BME280;35840;45.982;8.890;2023-03-24T04:58:03;98236.31;;;12.44;75.10
49949;BME280;35840;45.982;8.890;2023-03-24T05:00:30;98231.97;;;12.45;74.81
49949;BME280;35840;45.982;8.890;2023-03-24T05:02:57;98241.84;;;12.51;74.43
49949;BME280;35840;45.982;8.890;2023-03-24T05:05:25;98241.84;;;12.51;74.82
49949;BME280;35840;45.982;8.890;2023-03-24T05:07:53;98230.91;;;12.47;74.51
49949;BME280;35840;45.982;8.890;2023-03-24T05:10:20;98231.16;;;12.44;74.37
49949;BME280;35840;45.982;8.890;2023-03-24T05:12:55;98226.72;;;12.46;72.91
49949;BME280;35840;45.982;8.890;2023-03-24T05:15:41;98241.41;;;12.57;73.79
49949;BME280;35840;45.982;8.890;2023-03-24T05:18:38;98235.22;;;12.60;73.10
49949;BME280;35840;45.982;8.890;2023-03-24T05:21:05;98236.47;;;12.54;73.59
49949;BME280;35840;45.982;8.890;2023-03-24T05:23:34;98241.13;;;12.49;74.16
49949;BME280;35840;45.982;8.890;2023-03-24T05:26:01;98239.50;;;12.48;74.04
49949;BME280;35840;45.982;8.890;2023-03-24T05:28:31;98238.53;;;12.49;74.01
49949;BME280;35840;45.982;8.890;2023-03-24T05:30:58;98232.69;;;12.47;74.22
49949;BME280;35840;45.982;8.890;2023-03-24T05:33:41;98229.88;;;12.50;74.10
49949;BME280;35840;45.982;8.890;2023-03-24T05:36:12;98227.41;;;12.48;75.04
49949;BME280;35840;45.982;8.890;2023-03-24T05:38:41;98230.00;;;12.48;75.45
49949;BME280;35840;45.982;8.890;2023-03-24T05:41:08;98236.59;;;12.52;76.33
49949;BME280;35840;45.982;8.890;2023-03-24T05:43:39;98238.53;;;12.49;75.79
49949;BME280;35840;45.982;8.890;2023-03-24T05:46:09;98255.56;;;12.51;76.46
49949;BME280;35840;45.982;8.890;2023-03-24T05:48:36;98250.41;;;12.51;76.44
49949;BME280;35840;45.982;8.890;2023-03-24T05:51:07;98253.94;;;12.50;77.59
49949;BME280;35840;45.982;8.890;2023-03-24T05:53:34;98249.47;;;12.52;77.67
49949;BME280;35840;45.982;8.890;2023-03-24T05:56:11;98241.41;;;12.57;76.72
49949;BME280;35840;45.982;8.890;2023-03-24T05:58:56;98249.88;;;12.59;76.70
49949;BME280;35840;45.982;8.890;2023-03-24T06:01:31;98257.50;;;12.61;77.22
49949;BME280;35840;45.982;8.890;2023-03-24T06:04:12;98261.81;;;12.60;76.36
49949;BME280;35840;45.982;8.890;2023-03-24T06:06:39;98256.06;;;12.56;76.46
49949;BME280;35840;45.982;8.890;2023-03-24T06:09:06;98260.59;;;12.53;76.81
49949;BME280;35840;45.982;8.890;2023-03-24T06:11:33;98260.03;;;12.49;76.09
49949;BME280;35840;45.982;8.890;2023-03-24T06:14:05;98257.97;;;12.42;76.12
49949;BME280;35840;45.982;8.890;2023-03-24T06:16:43;98265.06;;;12.51;76.01
49949;BME280;35840;45.982;8.890;2023-03-24T06:19:13;98261.22;;;12.56;76.65
49949;BME280;35840;45.982;8.890;2023-03-24T06:21:56;98263.69;;;12.58;76.23
49949;BME280;35840;45.982;8.890;2023-03-24T06:24:33;98263.06;;;12.54;75.83
49949;BME280;35840;45.982;8.890;2023-03-24T06:27:05;98267.53;;;12.52;75.70
49949;BME280;35840;45.982;8.890;2023-03-24T06:29:35;98281.06;;;12.56;76.52
49949;BME280;35840;45.982;8.890;2023-03-24T06:32:02;98270.56;;;12.46;75.70
49949;BME280;35840;45.982;8.890;2023-03-24T06:34:37;98274.50;;;12.39;77.35
49949;BME280;35840;45.982;8.890;2023-03-24T06:37:25;98270.25;;;12.38;77.59
49949;BME280;35840;45.982;8.890;2023-03-24T06:39:54;98281.28;;;12.40;76.32
49949;BME280;35840;45.982;8.890;2023-03-24T06:42:25;98279.31;;;12.44;77.26
49949;BME280;35840;45.982;8.890;2023-03-24T06:44:53;98275.91;;;12.43;76.66
49949;BME280;35840;45.982;8.890;2023-03-24T06:47:20;98268.50;;;12.38;76.75
49949;BME280;35840;45.982;8.890;2023-03-24T06:49:47;98269.13;;;12.42;77.21
49949;BME280;35840;45.982;8.890;2023-03-24T06:52:14;98273.94;;;12.47;77.10
49949;BME280;35840;45.982;8.890;2023-03-24T06:54:41;98260.22;;;12.46;77.00
49949;BME280;35840;45.982;8.890;2023-03-24T06:57:08;98275.81;;;12.45;76.57
49949;BME280;35840;45.982;8.890;2023-03-24T06:59:55;98267.97;;;12.46;76.54
49949;BME280;35840;45.982;8.890;2023-03-24T07:02:27;98270.16;;;12.39;77.04
49949;BME280;35840;45.982;8.890;2023-03-24T07:05:02;98277.56;;;12.44;76.08
49949;BME280;35840;45.982;8.890;2023-03-24T07:07:39;98278.78;;;12.51;75.68
49949;BME280;35840;45.982;8.890;2023-03-24T07:10:27;98278.94;;;12.61;76.68
49949;BME280;35840;45.982;8.890;2023-03-24T07:12:54;98271.09;;;12.63;76.40
49949;BME280;35840;45.982;8.890;2023-03-24T07:15:21;98262.66;;;12.61;75.98
49949;BME280;35840;45.982;8.890;2023-03-24T07:17:48;98256.28;;;12.53;77.09
49949;BME280;35840;45.982;8.890;2023-03-24T07:20:25;98249.69;;;12.49;76.50
49949;BME280;35840;45.982;8.890;2023-03-24T07:23:13;98250.63;;;12.48;76.26
49949;BME280;35840;45.982;8.890;2023-03-24T07:26:11;98268.75;;;12.60;75.97
49949;BME280;35840;45.982;8.890;2023-03-24T07:28:47;98271.00;;;12.64;76.55
49949;BME280;35840;45.982;8.890;2023-03-24T07:31:25;98265.72;;;12.66;75.72
49949;BME280;35840;45.982;8.890;2023-03-24T07:33:58;98273.69;;;12.63;74.82
49949;BME280;35840;45.982;8.890;2023-03-24T07:36:28;98289.28;;;12.61;75.26
49949;BME280;35840;45.982;8.890;2023-03-24T07:38:56;98288.47;;;12.61;75.00
49949;BME280;35840;45.982;8.890;2023-03-24T07:41:29;98290.53;;;12.55;75.43
49949;BME280;35840;45.982;8.890;2023-03-24T07:44:01;98297.22;;;12.58;75.71
49949;BME280;35840;45.982;8.890;2023-03-24T07:46:47;98297.94;;;12.60;75.34
49949;BME280;35840;45.982;8.890;2023-03-24T07:49:14;98307.22;;;12.63;76.44
49949;BME280;35840;45.982;8.890;2023-03-24T07:51:56;98311.44;;;12.64;77.24
49949;BME280;35840;45.982;8.890;2023-03-24T07:54:31;98303.31;;;12.57;77.09
49949;BME280;35840;45.982;8.890;2023-03-24T07:57:00;98303.19;;;12.58;77.07
49949;BME280;35840;45.982;8.890;2023-03-24T07:59:27;98302.59;;;12.55;76.64
49949;BME280;35840;45.982;8.890;2023-03-24T08:02:16;98299.41;;;12.51;76.47
49949;BME280;35840;45.982;8.890;2023-03-24T08:04:55;98301.75;;;12.54;76.19
49949;BME280;35840;45.982;8.890;2023-03-24T08:07:50;98309.91;;;12.61;76.35
49949;BME280;35840;45.982;8.890;2023-03-24T08:10:24;98317.53;;;12.63;76.36
49949;BME280;35840;45.982;8.890;2023-03-24T08:12:51;98318.56;;;12.60;76.59
49949;BME280;35840;45.982;8.890;2023-03-24T08:15:18;98316.31;;;12.55;76.74
49949;BME280;35840;45.982;8.890;2023-03-24T08:17:46;98307.25;;;12.50;77.00
49949;BME280;35840;45.982;8.890;2023-03-24T08:20:13;98309.31;;;12.57;77.32
49949;BME280;35840;45.982;8.890;2023-03-24T08:22:42;98310.00;;;12.60;76.02
49949;BME280;35840;45.982;8.890;2023-03-24T08:25:10;98297.22;;;12.58;76.62
49949;BME280;35840;45.982;8.890;2023-03-24T08:27:38;98294.75;;;12.56;76.76
49949;BME280;35840;45.982;8.890;2023-03-24T08:30:07;98293.94;;;12.56;77.21
49949;BME280;35840;45.982;8.890;2023-03-24T08:32:36;98304.75;;;12.61;76.51
49949;BME280;35840;45.982;8.890;2023-03-24T08:35:03;98311.88;;;12.57;76.53
49949;BME280;35840;45.982;8.890;2023-03-24T08:37:30;98311.25;;;12.54;77.20
49949;BME280;35840;45.982;8.890;2023-03-24T08:39:57;98304.78;;;12.48;76.70
49949;BME280;35840;45.982;8.890;2023-03-24T08:42:31;98313.25;;;12.50;76.62
49949;BME280;35840;45.982;8.890;2023-03-24T08:44:57;98323.34;;;12.53;77.59
49949;BME280;35840;45.982;8.890;2023-03-24T08:47:24;98319.00;;;12.54;78.09
49949;BME280;35840;45.982;8.890;2023-03-24T08:49:55;98321.78;;;12.51;78.41
49949;BME280;35840;45.982;8.890;2023-03-24T08:52:23;98327.53;;;12.54;78.69
49949;BME280;35840;45.982;8.890;2023-03-24T08:54:51;98332.09;;;12.51;78.85
49949;BME280;35840;45.982;8.890;2023-03-24T08:57:18;98325.50;;;12.47;79.66
49949;BME280;35840;45.982;8.890;2023-03-24T08:59:44;98327.28;;;12.46;80.80
49949;BME280;35840;45.982;8.890;2023-03-24T09:02:12;98321.50;;;12.43;81.60
49949;BME280;35840;45.982;8.890;2023-03-24T09:04:39;98319.34;;;12.36;81.96
49949;BME280;35840;45.982;8.890;2023-03-24T09:07:09;98332.34;;;12.35;82.82
49949;BME280;35840;45.982;8.890;2023-03-24T09:09:36;98334.59;;;12.27;83.18
49949;BME280;35840;45.982;8.890;2023-03-24T09:12:02;98336.34;;;12.26;83.96
49949;BME280;35840;45.982;8.890;2023-03-24T09:14:29;98340.59;;;12.27;83.84
49949;BME280;35840;45.982;8.890;2023-03-24T09:16:56;98316.88;;;12.09;84.60
49949;BME280;35840;45.982;8.890;2023-03-24T09:19:23;98343.38;;;12.24;85.21
49949;BME280;35840;45.982;8.890;2023-03-24T09:21:50;98340.25;;;12.19;85.11
49949;BME280;35840;45.982;8.890;2023-03-24T09:24:16;98334.50;;;12.15;84.71
49949;BME280;35840;45.982;8.890;2023-03-24T09:26:43;98329.97;;;12.06;84.19
49949;BME280;35840;45.982;8.890;2023-03-24T09:29:10;98325.66;;;12.07;84.30
49949;BME280;35840;45.982;8.890;2023-03-24T09:31:37;98320.06;;;12.00;83.73
49949;BME280;35840;45.982;8.890;2023-03-24T09:34:04;98328.94;;;11.96;83.77
49949;BME280;35840;45.982;8.890;2023-03-24T09:36:30;98336.09;;;11.91;84.67
49949;BME280;35840;45.982;8.890;2023-03-24T09:38:57;98335.28;;;11.90;85.44
49949;BME280;35840;45.982;8.890;2023-03-24T09:41:29;98323.97;;;11.93;86.71
49949;BME280;35840;45.982;8.890;2023-03-24T09:46:35;98327.69;;;12.01;86.84
49949;BME280;35840;45.982;8.890;2023-03-24T09:49:04;98321.50;;;11.91;87.42
49949;BME280;35840;45.982;8.890;2023-03-24T09:51:40;98314.13;;;11.72;89.68
49949;BME280;35840;45.982;8.890;2023-03-24T09:56:56;98307.47;;;11.69;90.69
49949;BME280;35840;45.982;8.890;2023-03-24T09:59:31;98314.66;;;11.77;90.86
49949;BME280;35840;45.982;8.890;2023-03-24T10:02:00;98309.63;;;11.88;90.85
49949;BME280;35840;45.982;8.890;2023-03-24T10:04:28;98308.31;;;11.96;90.68
49949;BME280;35840;45.982;8.890;2023-03-24T10:07:08;98304.63;;;12.00;91.98
49949;BME280;35840;45.982;8.890;2023-03-24T10:09:39;98292.88;;;11.96;92.01
49949;BME280;35840;45.982;8.890;2023-03-24T10:15:09;98318.94;;;12.17;92.48
49949;BME280;35840;45.982;8.890;2023-03-24T10:26:20;98305.44;;;12.13;91.63
49949;BME280;35840;45.982;8.890;2023-03-24T10:29:05;98308.41;;;12.20;91.64
49949;BME280;35840;45.982;8.890;2023-03-24T10:31:40;98310.69;;;12.25;92.15
49949;BME280;35840;45.982;8.890;2023-03-24T10:34:10;98292.75;;;12.23;92.32
49949;BME280;35840;45.982;8.890;2023-03-24T10:36:39;98311.91;;;12.32;92.62
49949;BME280;35840;45.982;8.890;2023-03-24T10:39:13;98310.97;;;12.33;93.28
49949;BME280;35840;45.982;8.890;2023-03-24T10:41:50;98305.81;;;12.33;92.23
49949;BME280;35840;45.982;8.890;2023-03-24T10:44:19;98300.44;;;12.36;92.46
49949;BME280;35840;45.982;8.890;2023-03-24T10:46:49;98298.72;;;12.36;92.83
49949;BME280;35840;45.982;8.890;2023-03-24T10:49:19;98295.00;;;12.40;92.43
49949;BME280;35840;45.982;8.890;2023-03-24T10:51:49;98303.13;;;12.47;92.39
49949;BME280;35840;45.982;8.890;2023-03-24T10:54:23;98316.13;;;12.46;92.52
49949;BME280;35840;45.982;8.890;2023-03-24T10:59:30;98305.69;;;12.47;92.25
49949;BME280;35840;45.982;8.890;2023-03-24T11:02:14;98299.84;;;12.45;92.84
49949;BME280;35840;45.982;8.890;2023-03-24T11:04:49;98285.94;;;12.35;93.58
49949;BME280;35840;45.982;8.890;2023-03-24T11:07:19;98297.25;;;12.45;92.92
49949;BME280;35840;45.982;8.890;2023-03-24T11:10:01;98297.97;;;12.47;93.11
49949;BME280;35840;45.982;8.890;2023-03-24T11:12:31;98302.19;;;12.48;93.81
49949;BME280;35840;45.982;8.890;2023-03-24T11:20:55;98298.59;;;12.51;93.22
49949;BME280;35840;45.982;8.890;2023-03-24T11:23:39;98293.66;;;12.48;93.55
49949;BME280;35840;45.982;8.890;2023-03-24T11:26:19;98300.44;;;12.49;94.44
49949;BME280;35840;45.982;8.890;2023-03-24T11:28:55;98287.34;;;12.52;94.81
49949;BME280;35840;45.982;8.890;2023-03-24T11:31:24;98298.78;;;12.61;93.53
49949;BME280;35840;45.982;8.890;2023-03-24T11:34:01;98293.31;;;12.52;93.43
49949;BME280;35840;45.982;8.890;2023-03-24T11:39:16;98290.84;;;12.51;94.21
49949;BME280;35840;45.982;8.890;2023-03-24T11:46:59;98271.19;;;12.37;93.54
49949;BME280;35840;45.982;8.890;2023-03-24T11:49:36;98274.50;;;12.39;94.06
49949;BME280;35840;45.982;8.890;2023-03-24T11:52:07;98269.34;;;12.39;93.58
49949;BME280;35840;45.982;8.890;2023-03-24T11:54:35;98269.94;;;12.43;92.88
49949;BME280;35840;45.982;8.890;2023-03-24T11:57:07;98260.53;;;12.42;91.77
49949;BME280;35840;45.982;8.890;2023-03-24T11:59:54;98253.88;;;12.39;92.09
49949;BME280;35840;45.982;8.890;2023-03-24T12:08:35;98238.28;;;12.40;92.68
49949;BME280;35840;45.982;8.890;2023-03-24T12:13:47;98243.81;;;12.47;91.98
49949;BME280;35840;45.982;8.890;2023-03-24T12:16:39;98233.25;;;12.39;92.46
49949;BME280;35840;45.982;8.890;2023-03-24T12:24:27;98220.50;;;12.49;94.54
49949;BME280;35840;45.982;8.890;2023-03-24T12:26:59;98225.25;;;12.55;94.25
49949;BME280;35840;45.982;8.890;2023-03-24T12:29:48;98207.31;;;12.53;93.27
49949;BME280;35840;45.982;8.890;2023-03-24T12:43:17;98218.03;;;12.47;93.82
49949;BME280;35840;45.982;8.890;2023-03-24T12:45:54;98212.06;;;12.47;93.91
49949;BME280;35840;45.982;8.890;2023-03-24T12:48:43;98203.28;;;12.49;94.10
49949;BME280;35840;45.982;8.890;2023-03-24T12:54:21;98189.53;;;12.62;92.19
49949;BME280;35840;45.982;8.890;2023-03-24T12:56:59;98182.59;;;12.62;92.46
49949;BME280;35840;45.982;8.890;2023-03-24T13:05:01;98187.75;;;12.62;92.58
49949;BME280;35840;45.982;8.890;2023-03-24T13:07:34;98185.88;;;12.64;93.18
49949;BME280;35840;45.982;8.890;2023-03-24T13:10:18;98180.94;;;12.61;92.99
49949;BME280;35840;45.982;8.890;2023-03-24T13:13:12;98179.16;;;12.50;92.00
49949;BME280;35840;45.982;8.890;2023-03-24T13:15:57;98181.22;;;12.45;92.21
49949;BME280;35840;45.982;8.890;2023-03-24T13:18:32;98167.84;;;12.40;91.93
49949;BME280;35840;45.982;8.890;2023-03-24T13:21:13;98161.53;;;12.44;89.98
49949;BME280;35840;45.982;8.890;2023-03-24T13:31:39;98154.56;;;12.57;90.87
49949;BME280;35840;45.982;8.890;2023-03-24T13:36:55;98148.97;;;12.64;90.87
49949;BME280;35840;45.982;8.890;2023-03-24T13:39:25;98144.50;;;12.66;90.42
49949;BME280;35840;45.982;8.890;2023-03-24T13:41:54;98141.91;;;12.66;89.67
49949;BME280;35840;45.982;8.890;2023-03-24T13:44:40;98136.56;;;12.69;89.65
49949;BME280;35840;45.982;8.890;2023-03-24T13:47:16;98140.31;;;12.65;89.31
49949;BME280;35840;45.982;8.890;2023-03-24T13:49:58;98130.78;;;12.65;90.62
49949;BME280;35840;45.982;8.890;2023-03-24T13:52:37;98119.28;;;12.58;88.57
49949;BME280;35840;45.982;8.890;2023-03-24T13:55:12;98117.22;;;12.39;87.76
49949;BME280;35840;45.982;8.890;2023-03-24T13:57:41;98108.66;;;12.38;87.52
49949;BME280;35840;45.982;8.890;2023-03-24T14:00:20;98116.88;;;12.44;87.42
49949;BME280;35840;45.982;8.890;2023-03-24T14:02:55;98121.44;;;12.40;88.18
49949;BME280;35840;45.982;8.890;2023-03-24T14:05:59;98121.94;;;12.45;89.21
49949;BME280;35840;45.982;8.890;2023-03-24T14:14:19;98109.47;;;12.63;89.31
49949;BME280;35840;45.982;8.890;2023-03-24T14:16:50;98104.19;;;12.65;89.60
49949;BME280;35840;45.982;8.890;2023-03-24T14:19:26;98114.88;;;12.71;89.61
49949;BME280;35840;45.982;8.890;2023-03-24T14:22:26;98115.97;;;12.80;88.45
49949;BME280;35840;45.982;8.890;2023-03-24T14:27:36;98115.72;;;12.72;88.93
49949;BME280;35840;45.982;8.890;2023-03-24T14:30:27;98107.25;;;12.70;89.29
49949;BME280;35840;45.982;8.890;2023-03-24T14:33:00;98106.03;;;12.63;87.37
49949;BME280;35840;45.982;8.890;2023-03-24T14:35:44;98105.78;;;12.54;87.76
49949;BME280;35840;45.982;8.890;2023-03-24T14:40:57;98109.78;;;12.58;88.94
49949;BME280;35840;45.982;8.890;2023-03-24T14:51:41;98099.25;;;12.62;89.46
49949;BME280;35840;45.982;8.890;2023-03-24T14:54:21;98094.19;;;12.60;89.60
49949;BME280;35840;45.982;8.890;2023-03-24T14:56:54;98098.81;;;12.68;90.34
49949;BME280;35840;45.982;8.890;2023-03-24T15:07:45;98100.22;;;12.72;90.03
49949;BME280;35840;45.982;8.890;2023-03-24T15:10:24;98100.22;;;12.72;90.80
49949;BME280;35840;45.982;8.890;2023-03-24T15:12:51;98096.50;;;12.76;91.09
49949;BME280;35840;45.982;8.890;2023-03-24T15:15:21;98096.72;;;12.73;91.29
49949;BME280;35840;45.982;8.890;2023-03-24T15:17:50;98097.88;;;12.69;91.21
49949;BME280;35840;45.982;8.890;2023-03-24T15:20:25;98096.22;;;12.68;90.84
49949;BME280;35840;45.982;8.890;2023-03-24T15:22:53;98097.16;;;12.67;89.57
49949;BME280;35840;45.982;8.890;2023-03-24T15:25:27;98098.69;;;12.69;90.57
49949;BME280;35840;45.982;8.890;2023-03-24T15:27:56;98098.69;;;12.69;90.75
49949;BME280;35840;45.982;8.890;2023-03-24T15:30:27;98088.38;;;12.69;90.13
49949;BME280;35840;45.982;8.890;2023-03-24T15:32:55;98082.41;;;12.69;89.85
49949;BME280;35840;45.982;8.890;2023-03-24T15:35:23;98084.97;;;12.69;90.79
49949;BME280;35840;45.982;8.890;2023-03-24T15:37:55;98090.13;;;12.69;89.89
49949;BME280;35840;45.982;8.890;2023-03-24T15:42:56;98091.56;;;12.73;91.19
49949;BME280;35840;45.982;8.890;2023-03-24T15:45:31;98097.53;;;12.73;91.60
49949;BME280;35840;45.982;8.890;2023-03-24T15:48:04;98087.69;;;12.67;91.14
49949;BME280;35840;45.982;8.890;2023-03-24T15:50:38;98093.66;;;12.68;91.98
49949;BME280;35840;45.982;8.890;2023-03-24T15:55:44;98091.56;;;12.73;92.00
49949;BME280;35840;45.982;8.890;2023-03-24T15:58:26;98087.09;;;12.75;92.39
49949;BME280;35840;45.982;8.890;2023-03-24T16:00:57;98093.91;;;12.76;91.47
49949;BME280;35840;45.982;8.890;2023-03-24T16:03:25;98099.88;;;12.77;91.88
49949;BME280;35840;45.982;8.890;2023-03-24T16:05:55;98084.75;;;12.72;92.28
49949;BME280;35840;45.982;8.890;2023-03-24T16:08:28;98087.69;;;12.67;93.09
49949;BME280;35840;45.982;8.890;2023-03-24T16:11:02;98085.09;;;12.67;93.31
49949;BME280;35840;45.982;8.890;2023-03-24T16:13:38;98097.41;;;12.75;92.59
49949;BME280;35840;45.982;8.890;2023-03-24T16:18:46;98087.88;;;12.64;93.62